Time;durP1;ratioP1;P1;durP2;ratioP2;P2;SDS_P1;SDS_P2;PMS_P1;PMS_P2;Temp;Humidity;BMP_temperature;BMP_pressure;BME280_temperature;BME280_humidity;BME280_pressure;Samples;Min_cycle;Max_cycle;Signal;HPM_P1;HPM_P2
2022/05/10 00:02:11;;;;;;;13.70;4.50;;;13.80;99.90;;;;;;4769447;30;20059;-65
2022/05/10 00:04:38;;;;;;;12.30;4.40;;;13.80;99.90;;;;;;4769113;30;20059;-65
2022/05/10 00:07:03;;;;;;;9.48;4.40;;;14.10;99.90;;;;;;4768993;30;20135;-65
2022/05/10 00:09:29;;;;;;;12.85;5.03;;;13.60;99.90;;;;;;4768172;30;20552;-65
2022/05/10 00:11:57;;;;;;;12.15;4.95;;;14.30;99.90;;;;;;4769107;30;20048;-65
2022/05/10 00:14:27;;;;;;;10.95;4.60;;;13.40;99.90;;;;;;4769411;30;20052;-65
2022/05/10 00:16:53;;;;;;;9.63;4.57;;;13.90;99.90;;;;;;4769409;30;20066;-65
2022/05/10 00:19:20;;;;;;;14.65;4.82;;;14.10;99.90;;;;;;4770690;30;20432;-65
2022/05/10 00:21:47;;;;;;;12.75;4.72;;;13.40;99.90;;;;;;4772440;30;20055;-65
2022/05/10 00:24:13;;;;;;;11.30;4.90;;;;;;;;;;4772406;30;20492;-65
2022/05/10 00:26:39;;;;;;;9.27;4.85;;;13.40;99.90;;;;;;4772312;30;20567;-66
2022/05/10 00:29:05;;;;;;;11.13;4.70;;;13.30;99.90;;;;;;4772457;30;20071;-66
2022/05/10 00:31:31;;;;;;;15.57;5.70;;;;;;;;;;4772782;30;20505;-66
2022/05/10 00:33:59;;;;;;;15.57;5.63;;;13.40;99.90;;;;;;4772156;30;20059;-66
2022/05/10 00:36:26;;;;;;;11.38;5.47;;;12.60;99.90;;;;;;4772148;30;20047;-66
2022/05/10 00:38:52;;;;;;;9.27;5.18;;;13.60;99.90;;;;;;4772210;30;20047;-66
2022/05/10 00:41:17;;;;;;;13.23;6.05;;;13.80;99.90;;;;;;4772351;30;20124;-66
2022/05/10 00:43:49;;;;;;;11.27;6.38;;;13.90;99.90;;;;;;4772226;30;20059;-66
2022/05/10 00:46:24;;;;;;;14.73;6.80;;;13.50;99.90;;;;;;4772145;30;20079;-66
2022/05/10 00:48:50;;;;;;;17.80;7.70;;;;;;;;;;4772360;30;20059;-66
2022/05/10 00:51:37;;;;;;;12.18;7.22;;;13.50;99.90;;;;;;4771875;30;20429;-66
2022/05/10 00:54:14;;;;;;;22.33;8.32;;;13.50;99.90;;;;;;4772029;30;20115;-66
2022/05/10 00:57:06;;;;;;;14.80;7.90;;;13.70;99.90;;;;;;4771915;30;20098;-66
2022/05/10 01:02:30;;;;;;;17.85;8.63;;;;;;;;;;4850115;24;20059;-65
2022/05/10 01:05:04;;;;;;;14.85;9.20;;;13.30;99.90;;;;;;4770209;30;20092;-66
2022/05/10 01:07:35;;;;;;;15.65;8.05;;;13.60;99.90;;;;;;4770069;30;20060;-65
2022/05/10 01:10:01;;;;;;;15.68;8.75;;;;;;;;;;4778708;30;20122;-65
2022/05/10 01:12:39;;;;;;;17.73;9.48;;;13.40;99.90;;;;;;4788423;30;20105;-65
2022/05/10 01:15:24;;;;;;;18.38;9.90;;;13.40;99.90;;;;;;4788103;30;20047;-65
2022/05/10 01:17:54;;;;;;;24.50;10.10;;;13.50;99.90;;;;;;4768827;30;20055;-65
2022/05/10 01:20:44;;;;;;;17.27;9.65;;;13.20;99.90;;;;;;4768848;30;20055;-65
2022/05/10 01:23:59;;;;;;;15.07;9.52;;;13.40;99.90;;;;;;4754049;30;20055;-65
2022/05/10 01:26:41;;;;;;;20.27;10.30;;;13.50;99.90;;;;;;4770213;30;20055;-64
2022/05/10 01:29:11;;;;;;;22.30;10.80;;;13.70;99.90;;;;;;4754344;30;20470;-65
2022/05/10 01:31:44;;;;;;;17.55;10.70;;;13.70;99.90;;;;;;4769508;30;20055;-65
2022/05/10 01:34:16;;;;;;;17.92;11.00;;;13.40;99.90;;;;;;4753783;30;20060;-65
2022/05/10 01:36:59;;;;;;;22.33;12.32;;;13.40;99.90;;;;;;4786053;30;20060;-65
2022/05/10 01:39:24;;;;;;;22.02;11.48;;;13.50;99.90;;;;;;4787775;30;20062;-65
2022/05/10 01:42:09;;;;;;;19.90;11.77;;;13.00;99.90;;;;;;4787325;30;20045;-65
2022/05/10 01:44:41;;;;;;;17.60;12.20;;;13.40;99.90;;;;;;4787838;30;20349;-64
2022/05/10 01:47:15;;;;;;;21.85;11.65;;;13.40;99.90;;;;;;4787357;30;20082;-65
2022/05/10 01:49:54;;;;;;;20.70;11.43;;;13.40;99.90;;;;;;4787863;30;20058;-64
2022/05/10 01:52:41;;;;;;;19.75;11.60;;;13.10;99.90;;;;;;4771245;30;20063;-65
2022/05/10 01:55:26;;;;;;;18.20;11.05;;;13.40;99.90;;;;;;4787388;30;20066;-64
2022/05/10 01:57:54;;;;;;;14.75;10.93;;;13.90;99.90;;;;;;4787942;30;20054;-64
2022/05/10 02:00:22;;;;;;;18.13;11.02;;;13.20;99.90;;;;;;4787447;30;20059;-64
2022/05/10 02:02:53;;;;;;;19.13;10.18;;;13.40;99.90;;;;;;4787247;30;20059;-64
2022/05/10 02:05:43;;;;;;;19.88;10.38;;;13.20;99.90;;;;;;4786175;30;20189;-64
2022/05/10 02:08:23;;;;;;;16.77;9.43;;;13.10;99.90;;;;;;4774431;30;20055;-64
2022/05/10 02:10:53;;;;;;;16.25;9.40;;;12.90;99.90;;;;;;4771388;30;20048;-64
2022/05/10 02:13:30;;;;;;;17.02;9.30;;;12.50;99.90;;;;;;4769492;30;20059;-64
2022/05/10 02:16:05;;;;;;;18.23;10.05;;;12.70;99.90;;;;;;4738564;30;20055;-64
2022/05/10 02:18:37;;;;;;;18.27;9.87;;;12.60;99.90;;;;;;4769088;30;20094;-64
2022/05/10 02:21:44;;;;;;;17.45;9.77;;;13.20;99.90;;;;;;4769336;30;20101;-64
2022/05/10 02:24:23;;;;;;;15.07;10.10;;;13.10;99.90;;;;;;4768989;30;20056;-64
2022/05/10 02:26:53;;;;;;;19.45;10.75;;;13.40;99.90;;;;;;4773511;30;20581;-64
2022/05/10 02:29:40;;;;;;;15.32;10.65;;;13.00;99.90;;;;;;4786986;30;20058;-65
2022/05/10 02:35:11;;;;;;;15.00;10.77;;;13.10;99.90;;;;;;4786972;30;20057;-62
2022/05/10 02:37:37;;;;;;;15.32;10.30;;;13.10;99.90;;;;;;4786629;30;20069;-62
2022/05/10 02:40:05;;;;;;;19.33;11.13;;;12.70;99.90;;;;;;4786853;30;20066;-62
2022/05/10 02:42:32;;;;;;;15.63;11.30;;;13.10;99.90;;;;;;4770468;30;20063;-62
2022/05/10 02:44:58;;;;;;;18.80;11.80;;;;;;;;;;4786586;30;20422;-62
2022/05/10 02:47:39;;;;;;;23.42;12.75;;;12.70;99.90;;;;;;4786445;30;20058;-62
2022/05/10 02:50:13;;;;;;;22.45;12.88;;;12.80;99.90;;;;;;4786572;30;20519;-61
2022/05/10 02:52:39;;;;;;;16.88;12.35;;;;;;;;;;4786612;30;20122;-62
2022/05/10 02:55:15;;;;;;;21.10;12.20;;;13.10;99.90;;;;;;4786924;30;20440;-62
2022/05/10 02:57:46;;;;;;;19.35;11.77;;;12.40;99.90;;;;;;4786368;30;20114;-62
2022/05/10 03:00:13;;;;;;;20.50;12.75;;;12.70;99.90;;;;;;4786723;30;20058;-62
2022/05/10 03:02:43;;;;;;;18.30;13.02;;;13.80;99.90;;;;;;4786247;30;20071;-62
2022/05/10 03:05:10;;;;;;;20.98;13.05;;;;;;;;;;4786765;30;20471;-62
2022/05/10 03:07:38;;;;;;;19.95;13.13;;;13.30;99.90;;;;;;4786280;30;20065;-64
2022/05/10 03:10:06;;;;;;;20.42;12.85;;;13.10;99.90;;;;;;4786318;30;20126;-62
2022/05/10 03:12:32;;;;;;;19.08;12.57;;;13.10;99.90;;;;;;4786246;30;20051;-62
2022/05/10 03:14:58;;;;;;;21.40;13.43;;;12.60;99.90;;;;;;4786873;30;20161;-64
2022/05/10 03:17:24;;;;;;;21.52;13.57;;;12.60;99.90;;;;;;4786563;30;20116;-64
2022/05/10 03:19:50;;;;;;;23.02;14.45;;;13.00;99.90;;;;;;4786263;30;20056;-64
2022/05/10 03:22:16;;;;;;;21.65;12.70;;;;;;;;;;4785581;30;20120;-64
2022/05/10 03:24:43;;;;;;;20.90;14.65;;;12.90;99.90;;;;;;4786713;30;20051;-64
2022/05/10 03:27:11;;;;;;;27.23;16.10;;;13.20;99.90;;;;;;4786572;30;20087;-64
2022/05/10 03:29:39;;;;;;;23.38;15.88;;;;;;;;;;4785463;30;20389;-64
2022/05/10 03:32:06;;;;;;;24.55;15.60;;;13.10;99.90;;;;;;4786316;30;20059;-64
2022/05/10 03:37:16;;;;;;;24.60;18.00;;;;;;;;;;4786272;30;20051;-65
2022/05/10 03:39:42;;;;;;;26.75;17.58;;;13.40;99.90;;;;;;4786227;30;20676;-65
2022/05/10 03:42:10;;;;;;;26.08;18.63;;;13.60;99.90;;;;;;4770316;30;20135;-64
2022/05/10 03:44:36;;;;;;;24.08;17.80;;;12.80;99.90;;;;;;4770007;30;20066;-64
2022/05/10 03:47:03;;;;;;;26.52;17.92;;;13.30;99.90;;;;;;4786106;30;20130;-64
2022/05/10 03:49:28;;;;;;;27.70;19.17;;;13.50;99.90;;;;;;4769995;30;20093;-64
2022/05/10 03:51:54;;;;;;;27.17;18.02;;;13.60;99.90;;;;;;4785961;30;20110;-64
2022/05/10 03:54:24;;;;;;;27.35;18.88;;;12.50;99.90;;;;;;4787592;29;20047;-64
2022/05/10 03:56:50;;;;;;;27.90;18.23;;;13.50;99.90;;;;;;4789527;30;20051;-64
2022/05/10 03:59:17;;;;;;;26.80;17.77;;;13.30;99.90;;;;;;4789500;30;20571;-64
2022/05/10 04:01:44;;;;;;;29.08;18.50;;;13.30;99.90;;;;;;4773164;30;20303;-64
2022/05/10 04:04:10;;;;;;;26.90;18.65;;;;;;;;;;4789293;30;20492;-64
2022/05/10 04:06:36;;;;;;;26.63;17.25;;;;;;;;;;4789058;30;20212;-64
2022/05/10 04:09:03;;;;;;;21.42;16.83;;;13.00;99.90;;;;;;4789584;30;20130;-65
2022/05/10 04:11:29;;;;;;;25.38;16.95;;;13.80;99.90;;;;;;4789347;30;20101;-64
2022/05/10 04:13:55;;;;;;;29.05;17.38;;;13.30;99.90;;;;;;4789423;30;20051;-62
2022/05/10 04:16:22;;;;;;;24.27;18.65;;;13.50;99.90;;;;;;4789176;30;20047;-62
2022/05/10 04:18:47;;;;;;;29.73;18.65;;;13.60;99.90;;;;;;4789148;30;20055;-62
2022/05/10 04:21:13;;;;;;;30.27;19.08;;;13.30;99.90;;;;;;4788928;30;20170;-62
2022/05/10 04:23:39;;;;;;;28.77;19.33;;;;;;;;;;4773111;30;20055;-62
2022/05/10 04:26:08;;;;;;;26.00;19.30;;;13.40;99.90;;;;;;4789108;30;20136;-62
2022/05/10 04:28:35;;;;;;;26.40;19.33;;;13.30;99.90;;;;;;4788532;30;20128;-62
2022/05/10 04:31:02;;;;;;;26.60;18.58;;;12.70;99.90;;;;;;4788975;30;20039;-62
2022/05/10 04:33:28;;;;;;;30.13;19.58;;;13.80;99.90;;;;;;4788742;30;20126;-61
2022/05/10 04:35:54;;;;;;;32.45;19.58;;;12.90;99.90;;;;;;4788648;30;20779;-62
2022/05/10 04:38:20;;;;;;;32.50;18.75;;;;;;;;;;4788697;30;20063;-62
2022/05/10 04:43:34;;;;;;;30.65;19.88;;;;;;;;;;4788443;30;20067;-62
2022/05/10 04:46:00;;;;;;;26.33;19.33;;;;;;;;;;4788468;30;20492;-62
2022/05/10 04:48:26;;;;;;;26.98;19.27;;;13.90;99.90;;;;;;4788682;30;20484;-62
2022/05/10 04:50:52;;;;;;;30.90;19.08;;;14.00;99.90;;;;;;4788655;30;20055;-62
2022/05/10 04:53:17;;;;;;;38.85;18.77;;;14.00;99.90;;;;;;4788642;30;20136;-61
2022/05/10 04:55:43;;;;;;;27.42;18.73;;;14.00;99.90;;;;;;4788398;30;20108;-61
2022/05/10 04:58:09;;;;;;;28.50;19.58;;;14.10;99.90;;;;;;4788384;30;20051;-61
2022/05/10 05:00:36;;;;;;;34.90;18.63;;;14.00;99.90;;;;;;4788590;30;20491;-61
2022/05/10 05:03:02;;;;;;;28.38;18.85;;;;;;;;;;4770181;30;20163;-61
2022/05/10 05:05:27;;;;;;;28.42;19.30;;;13.60;99.90;;;;;;4776949;29;20062;-62
2022/05/10 05:07:54;;;;;;;32.60;19.10;;;;;;;;;;4787158;30;20043;-61
2022/05/10 05:10:20;;;;;;;26.83;18.95;;;;;;;;;;4771679;30;20066;-62
2022/05/10 05:12:45;;;;;;;32.03;20.10;;;14.50;99.90;;;;;;4771776;30;20133;-62
2022/05/10 05:15:12;;;;;;;31.08;19.00;;;14.80;99.90;;;;;;4786841;30;20425;-61
2022/05/10 05:17:38;;;;;;;37.78;19.88;;;13.90;99.90;;;;;;4787661;30;20047;-61
2022/05/10 05:20:05;;;;;;;32.33;18.52;;;14.30;99.90;;;;;;4787186;30;20517;-61
2022/05/10 05:22:31;;;;;;;31.00;19.00;;;14.50;99.90;;;;;;4787337;30;20526;-62
2022/05/10 05:24:56;;;;;;;30.55;18.25;;;15.10;99.90;;;;;;4787068;30;20055;-61
2022/05/10 05:27:23;;;;;;;31.05;17.27;;;;;;;;;;4771968;30;20063;-61
2022/05/10 05:29:49;;;;;;;34.95;17.38;;;15.00;99.90;;;;;;4787835;30;20435;-61
2022/05/10 05:32:17;;;;;;;135.05;22.23;;;15.00;99.90;;;;;;4787955;30;20492;-61
2022/05/10 05:34:44;;;;;;;104.93;23.17;;;15.00;99.90;;;;;;4771727;30;20496;-61
2022/05/10 05:40:16;;;;;;;31.50;17.05;;;15.20;99.90;;;;;;4749946;30;20066;-61
2022/05/10 05:42:42;;;;;;;30.83;16.90;;;15.20;99.90;;;;;;4750051;30;20056;-61
2022/05/10 05:45:10;;;;;;;28.63;16.40;;;15.40;99.90;;;;;;4750226;30;20060;-61
2022/05/10 05:47:37;;;;;;;31.60;17.75;;;15.70;99.90;;;;;;4749856;30;20066;-61
2022/05/10 05:50:05;;;;;;;24.23;15.63;;;15.50;99.90;;;;;;4749894;30;20060;-61
2022/05/10 05:52:31;;;;;;;24.38;16.52;;;;;;;;;;4749785;30;20545;-62
2022/05/10 05:54:56;;;;;;;26.30;15.93;;;15.40;99.90;;;;;;4735193;30;20065;-62
2022/05/10 05:57:24;;;;;;;26.05;17.23;;;15.50;99.90;;;;;;4749682;30;20056;-62
2022/05/10 05:59:55;;;;;;;24.23;16.65;;;15.30;99.90;;;;;;4749853;30;20491;-61
2022/05/10 06:02:22;;;;;;;25.13;17.58;;;15.80;99.90;;;;;;4749498;30;20119;-62
2022/05/10 06:04:49;;;;;;;25.75;17.40;;;15.70;99.90;;;;;;4749783;30;20147;-61
2022/05/10 06:07:15;;;;;;;26.00;16.88;;;15.70;99.90;;;;;;4749359;30;20217;-61
2022/05/10 06:09:42;;;;;;;33.35;17.67;;;15.80;99.90;;;;;;4749280;30;20576;-62
2022/05/10 06:12:10;;;;;;;28.92;17.63;;;15.90;99.90;;;;;;4786857;30;20055;-61
2022/05/10 06:14:37;;;;;;;43.05;18.30;;;15.30;99.90;;;;;;4787663;30;20667;-61
2022/05/10 06:17:04;;;;;;;28.10;17.90;;;16.00;99.90;;;;;;4787512;29;20055;-61
2022/05/10 06:19:30;;;;;;;28.05;17.30;;;16.40;99.90;;;;;;4787363;30;20385;-61
2022/05/10 06:21:56;;;;;;;55.55;18.13;;;;;;;;;;4787835;30;20069;-61
2022/05/10 06:24:23;;;;;;;38.72;18.00;;;16.10;99.90;;;;;;4787410;30;20047;-61
2022/05/10 06:26:52;;;;;;;33.38;18.63;;;16.20;99.90;;;;;;4787435;30;20504;-62
2022/05/10 06:29:18;;;;;;;29.15;17.80;;;16.50;99.90;;;;;;4771200;30;20058;-62
2022/05/10 06:31:45;;;;;;;26.90;17.40;;;16.40;99.90;;;;;;4787230;30;20058;-61
2022/05/10 06:34:15;;;;;;;26.70;16.77;;;16.60;99.90;;;;;;4786505;30;20120;-62
2022/05/10 06:36:41;;;;;;;23.45;16.88;;;;;;;;;;4787042;30;20126;-61
2022/05/10 06:39:08;;;;;;;23.17;17.20;;;;;;;;;;4787092;30;20147;-61
2022/05/10 06:41:34;;;;;;;24.23;17.17;;;17.40;99.90;;;;;;4787097;30;20051;-62
2022/05/10 06:44:01;;;;;;;27.33;16.40;;;17.60;99.90;;;;;;4787053;30;20108;-61
2022/05/10 06:46:29;;;;;;;25.05;16.00;;;18.00;99.90;;;;;;4787596;30;20044;-62
2022/05/10 06:48:55;;;;;;;24.48;16.38;;;;;;;;;;4770879;30;20056;-62
2022/05/10 06:51:23;;;;;;;31.45;16.35;;;19.20;99.90;;;;;;4786955;30;20496;-65
2022/05/10 06:53:49;;;;;;;20.90;15.52;;;;;;;;;;4786915;30;20117;-65
2022/05/10 06:56:15;;;;;;;23.67;15.18;;;;;;;;;;4786525;30;20489;-65
2022/05/10 06:58:41;;;;;;;29.73;14.90;;;20.20;99.90;;;;;;4786830;30;20069;-65
2022/05/10 07:01:12;;;;;;;27.30;15.40;;;20.40;95.40;;;;;;4786488;30;20051;-65
2022/05/10 07:03:46;;;;;;;29.52;15.90;;;20.40;94.50;;;;;;4785533;30;20055;-65
2022/05/10 07:06:19;;;;;;;25.50;14.40;;;20.40;94.50;;;;;;4770619;30;20055;-66
2022/05/10 07:08:45;;;;;;;26.48;14.65;;;20.40;99.90;;;;;;4786874;30;20059;-66
2022/05/10 07:11:12;;;;;;;28.35;14.77;;;;;;;;;;4786567;30;20396;-65
2022/05/10 07:13:39;;;;;;;28.00;14.73;;;20.20;95.20;;;;;;4785216;30;20055;-62
2022/05/10 07:16:05;;;;;;;28.60;14.82;;;;;;;;;;4769984;30;20060;-62
2022/05/10 07:18:31;;;;;;;34.53;14.65;;;;;;;;;;4786401;30;20489;-62
2022/05/10 07:20:57;;;;;;;23.30;14.40;;;;;;;;;;4769849;30;20066;-62
2022/05/10 07:23:27;;;;;;;37.13;14.52;;;20.00;95.00;;;;;;4770151;30;20400;-62
2022/05/10 07:25:55;;;;;;;25.08;13.00;;;20.50;99.90;;;;;;4786290;30;20310;-62
2022/05/10 07:28:21;;;;;;;18.17;12.75;;;21.10;91.40;;;;;;4786034;29;20058;-63
2022/05/10 07:30:48;;;;;;;27.23;13.07;;;21.40;99.80;;;;;;4773566;30;20136;-62
2022/05/10 07:33:19;;;;;;;24.98;13.45;;;21.60;98.80;;;;;;4789548;30;20047;-62
2022/05/10 07:38:29;;;;;;;20.15;12.05;;;21.90;92.30;;;;;;4789416;30;20058;-63
2022/05/10 07:40:55;;;;;;;21.08;12.55;;;;;;;;;;4789688;30;20419;-63
2022/05/10 07:43:21;;;;;;;22.35;12.27;;;;;;;;;;4789855;30;20051;-62
2022/05/10 07:45:50;;;;;;;22.67;11.70;;;22.60;91.40;;;;;;4789532;30;20097;-62
2022/05/10 07:48:16;;;;;;;24.95;11.48;;;;;;;;;;4789764;30;20126;-62
2022/05/10 07:50:43;;;;;;;27.05;12.13;;;22.70;75.20;;;;;;4788334;30;20408;-63
2022/05/10 07:53:13;;;;;;;19.27;10.43;;;23.10;73.50;;;;;;4789542;30;20125;-62
2022/05/10 07:55:39;;;;;;;21.52;10.55;;;22.90;81.30;;;;;;4789423;30;20047;-64
2022/05/10 07:58:06;;;;;;;29.65;10.27;;;23.40;69.90;;;;;;4773067;30;20063;-64
2022/05/10 08:00:34;;;;;;;24.83;9.60;;;23.50;68.90;;;;;;4789282;30;20059;-63
2022/05/10 08:03:08;;;;;;;25.23;9.88;;;23.70;67.50;;;;;;4773029;30;20063;-63
2022/05/10 08:05:34;;;;;;;30.33;9.13;;;24.00;88.80;;;;;;4772909;30;20135;-63
2022/05/10 08:08:00;;;;;;;17.65;8.80;;;;;;;;;;4788917;30;20126;-63
2022/05/10 08:10:25;;;;;;;18.75;8.70;;;23.20;86.50;;;;;;4772850;30;20051;-63
2022/05/10 08:12:51;;;;;;;17.08;8.68;;;;;;;;;;4773164;30;20062;-63
2022/05/10 08:15:20;;;;;;;17.48;8.70;;;;;;;;;;4788901;30;20142;-63
2022/05/10 08:17:45;;;;;;;21.00;9.50;;;24.80;68.30;;;;;;4772766;30;20071;-63
2022/05/10 08:20:11;;;;;;;28.13;8.70;;;;;;;;;;4788913;30;20118;-62
2022/05/10 08:22:37;;;;;;;22.48;9.55;;;;;;;;;;4788926;30;20091;-62
2022/05/10 08:25:03;;;;;;;16.90;8.82;;;24.20;72.80;;;;;;4788712;30;20051;-62
2022/05/10 08:27:29;;;;;;;17.35;8.93;;;24.40;73.70;;;;;;4788972;30;20058;-61
2022/05/10 08:29:56;;;;;;;20.45;8.82;;;;;;;;;;4788995;30;20051;-61
2022/05/10 08:32:22;;;;;;;17.23;8.68;;;;;;;;;;4788676;30;20058;-61
2022/05/10 08:34:50;;;;;;;18.67;8.90;;;23.90;73.30;;;;;;4789031;30;20055;-61
2022/05/10 08:37:15;;;;;;;17.02;8.43;;;24.30;67.70;;;;;;4788973;30;20085;-62
2022/05/10 08:39:41;;;;;;;17.33;8.13;;;24.40;73.50;;;;;;4788513;29;20444;-61
2022/05/10 08:42:23;;;;;;;22.33;7.93;;;23.70;72.90;;;;;;4788675;30;20070;-61
2022/05/10 08:44:58;;;;;;;15.57;8.10;;;23.20;73.50;;;;;;4788836;30;20126;-62
2022/05/10 08:47:24;;;;;;;;;;;23.90;61.10;;;;;;4788955;30;20389;-61
2022/05/10 08:49:59;;;;;;;18.67;7.80;;;23.50;62.10;;;;;;4788371;30;19967;-61
2022/05/10 08:52:39;;;;;;;14.70;7.50;;;23.30;74.80;;;;;;4787279;30;20066;-60
2022/05/10 08:55:06;;;;;;;17.65;7.57;;;23.30;75.00;;;;;;4772490;30;20055;-62
2022/05/10 08:57:51;;;;;;;21.92;7.13;;;22.60;74.60;;;;;;4788504;30;20063;-61
2022/05/10 09:00:38;;;;;;;19.65;6.80;;;23.40;75.70;;;;;;4788090;30;20051;-61
2022/05/10 09:03:21;;;;;;;32.08;7.38;;;23.80;75.40;;;;;;4788296;30;20087;-60
2022/05/10 09:05:48;;;;;;;26.10;7.25;;;23.80;74.30;;;;;;4788285;30;20094;-60
2022/05/10 09:08:31;;;;;;;17.05;7.60;;;23.10;74.40;;;;;;4788030;30;20051;-61
2022/05/10 09:11:03;;;;;;;22.13;8.02;;;23.10;74.20;;;;;;4772035;30;20137;-61
2022/05/10 09:13:29;;;;;;;22.13;7.18;;;23.70;74.20;;;;;;4772182;30;20108;-61
2022/05/10 09:15:58;;;;;;;27.55;7.88;;;23.70;62.00;;;;;;4772033;30;20066;-60
2022/05/10 09:18:39;;;;;;;27.08;6.82;;;23.80;73.80;;;;;;4787947;30;20050;-60
2022/05/10 09:21:25;;;;;;;23.13;7.63;;;23.30;72.80;;;;;;4787828;30;20506;-61
2022/05/10 09:24:33;;;;;;;17.73;6.95;;;23.70;72.20;;;;;;4771521;30;20129;-60
2022/05/10 09:27:08;;;;;;;17.20;6.80;;;24.20;72.00;;;;;;4787623;30;20116;-61
2022/05/10 09:29:39;;;;;;;;;;;24.60;61.20;;;;;;4788340;30;20066;-61
2022/05/10 09:35:14;;;;;;;14.23;6.32;;;25.20;62.90;;;;;;4787569;29;20125;-61
2022/05/10 09:37:49;;;;;;;26.27;7.05;;;25.40;63.20;;;;;;4771308;30;20087;-61
2022/05/10 09:40:18;;;;;;;25.90;7.20;;;25.30;69.40;;;;;;4787772;30;20436;-61
2022/05/10 09:42:47;;;;;;;30.35;6.68;;;25.90;70.30;;;;;;4787648;30;20055;-60
2022/05/10 09:45:25;;;;;;;23.75;6.68;;;25.30;68.90;;;;;;4771720;30;20077;-60
2022/05/10 09:48:00;;;;;;;26.05;6.85;;;25.70;69.80;;;;;;4787402;30;20388;-60
2022/05/10 09:50:31;;;;;;;38.80;7.35;;;25.00;69.90;;;;;;4787252;30;20515;-60
2022/05/10 09:53:12;;;;;;;23.98;6.63;;;25.00;70.40;;;;;;4786910;29;20059;-60
2022/05/10 09:55:41;;;;;;;25.02;6.72;;;24.60;59.80;;;;;;4787289;30;20111;-60
2022/05/10 09:58:17;;;;;;;27.75;6.78;;;24.20;71.90;;;;;;4787373;30;20055;-60
2022/05/10 10:00:52;;;;;;;17.08;6.53;;;23.70;73.00;;;;;;4787206;30;20083;-62
2022/05/10 10:03:42;;;;;;;17.00;6.10;;;24.40;65.40;;;;;;4786912;30;20063;-61
2022/05/10 10:06:23;;;;;;;18.35;6.72;;;24.40;74.40;;;;;;4795050;29;20058;-61
2022/05/10 10:08:54;;;;;;;18.40;6.43;;;23.50;73.60;;;;;;4805087;29;20141;-60
2022/05/10 10:11:29;;;;;;;22.70;7.40;;;24.20;74.60;;;;;;4804967;29;20362;-60
2022/05/10 10:14:06;;;;;;;21.98;6.97;;;24.30;63.70;;;;;;4804950;29;20055;-60
2022/05/10 10:16:53;;;;;;;14.27;6.78;;;24.10;75.00;;;;;;4788990;29;20423;-61
2022/05/10 10:19:25;;;;;;;18.27;6.60;;;24.40;63.40;;;;;;4804832;29;20051;-61
2022/05/10 10:22:10;;;;;;;13.93;7.07;;;23.70;73.60;;;;;;4804904;29;20483;-61
2022/05/10 10:24:39;;;;;;;;;;;24.50;63.60;;;;;;4769242;29;20047;-61
2022/05/10 10:27:13;;;;;;;16.50;6.95;;;24.00;74.30;;;;;;4785423;30;19969;-61
2022/05/10 10:29:51;;;;;;;34.67;6.90;;;24.40;68.70;;;;;;4770100;30;20097;-60
2022/05/10 10:32:28;;;;;;;23.88;6.50;;;24.40;69.90;;;;;;4774658;30;20051;-60
2022/05/10 10:35:06;;;;;;;24.98;7.28;;;24.10;61.80;;;;;;4785844;30;20043;-60
2022/05/10 10:37:50;;;;;;;22.27;6.80;;;24.70;61.60;;;;;;4769466;30;20063;-61
2022/05/10 10:40:27;;;;;;;11.32;6.00;;;24.70;72.10;;;;;;4785713;30;20473;-61
2022/05/10 10:43:14;;;;;;;24.85;6.28;;;24.60;71.20;;;;;;4785416;29;20127;-61
2022/05/10 10:45:46;;;;;;;28.95;6.50;;;24.70;71.20;;;;;;4786438;30;20077;-60
2022/05/10 10:48:20;;;;;;;27.70;6.63;;;24.70;70.90;;;;;;4785814;29;20055;-61
2022/05/10 10:50:46;;;;;;;9.77;6.03;;;24.50;59.80;;;;;;4786093;30;20195;-60
2022/05/10 10:53:13;;;;;;;15.15;6.00;;;24.60;70.60;;;;;;4784408;29;20052;-61
2022/05/10 10:55:47;;;;;;;11.85;5.35;;;24.60;70.70;;;;;;4785718;30;20055;-60
2022/05/10 10:58:13;;;;;;;19.17;5.85;;;24.70;68.00;;;;;;4785135;29;20522;-60
2022/05/10 11:00:47;;;;;;;15.27;6.18;;;24.70;69.80;;;;;;4785615;30;20047;-60
2022/05/10 11:03:31;;;;;;;14.30;6.75;;;25.20;69.90;;;;;;4784938;29;20059;-61
2022/05/10 11:06:16;;;;;;;12.48;6.18;;;25.20;69.70;;;;;;4786118;30;20048;-61
2022/05/10 11:08:59;;;;;;;15.98;6.00;;;25.30;70.30;;;;;;4785563;29;20055;-61
2022/05/10 11:11:39;;;;;;;24.08;6.05;;;25.20;69.50;;;;;;4785448;30;20409;-61
2022/05/10 11:14:32;;;;;;;29.60;6.65;;;25.00;59.20;;;;;;4786260;30;20051;-61
2022/05/10 11:17:13;;;;;;;63.95;9.27;;;25.10;60.20;;;;;;4786005;30;20089;-61
2022/05/10 11:20:03;;;;;;;37.10;8.70;;;25.30;68.90;;;;;;4785727;30;20047;-61
2022/05/10 11:22:39;;;;;;;28.00;6.82;;;25.00;68.60;;;;;;4785858;30;20051;-61
2022/05/10 11:25:06;;;;;;;11.63;5.78;;;;;;;;;;4786298;30;20066;-61
2022/05/10 11:27:32;;;;;;;12.23;5.68;;;;;;;;;;4785940;30;20181;-61
2022/05/10 11:30:08;;;;;;;17.55;5.82;;;25.10;68.80;;;;;;4786171;30;20055;-61
2022/05/10 11:33:16;;;;;;;17.70;5.85;;;25.80;68.90;;;;;;4786278;30;20165;-61
2022/05/10 11:35:57;;;;;;;64.80;6.72;;;25.60;68.40;;;;;;4730596;30;20060;-60
2022/05/10 11:38:59;;;;;;;28.75;6.22;;;25.30;67.90;;;;;;4730467;30;20124;-61
2022/05/10 11:41:41;;;;;;;17.48;5.68;;;25.50;67.30;;;;;;4730420;30;20059;-61
2022/05/10 11:44:21;;;;;;;19.42;5.63;;;25.00;63.80;;;;;;4730670;30;20060;-61
2022/05/10 11:46:55;;;;;;;29.70;6.45;;;25.00;66.70;;;;;;4730270;30;20088;-61
2022/05/10 11:49:45;;;;;;;21.10;6.57;;;25.20;57.40;;;;;;4730360;30;20061;-61
2022/05/10 11:52:40;;;;;;;23.85;6.13;;;25.50;68.30;;;;;;4715517;30;20060;-61
2022/05/10 11:55:33;;;;;;;24.17;7.15;;;25.50;58.20;;;;;;4730550;30;20148;-61
2022/05/10 11:58:03;;;;;;;28.92;6.05;;;25.40;67.90;;;;;;4730272;30;20465;-61
2022/05/10 12:00:31;;;;;;;22.10;6.35;;;25.30;67.50;;;;;;4730522;30;20135;-63
2022/05/10 12:03:00;;;;;;;16.88;6.05;;;25.10;67.40;;;;;;4730204;30;20064;-62
2022/05/10 12:05:26;;;;;;;9.93;5.22;;;;;;;;;;4730227;30;20114;-62
2022/05/10 12:07:54;;;;;;;13.07;5.85;;;25.40;58.70;;;;;;4730115;30;20131;-62
2022/05/10 12:10:31;;;;;;;15.63;5.68;;;25.50;68.50;;;;;;4759854;30;20453;-62
2022/05/10 12:13:09;;;;;;;41.05;6.20;;;25.20;58.50;;;;;;4786066;30;20309;-60
2022/05/10 12:21:50;;;;;;;19.25;5.57;;;25.90;67.20;;;;;;4772855;30;20149;-62
2022/05/10 12:24:19;;;;;;;21.38;4.85;;;26.30;65.50;;;;;;4772748;30;20063;-61
2022/05/10 12:26:53;;;;;;;49.42;5.95;;;25.80;64.30;;;;;;4788904;30;20062;-61
2022/05/10 12:29:54;;;;;;;21.10;5.05;;;26.00;60.10;;;;;;4789152;30;20055;-62
2022/05/10 12:32:38;;;;;;;24.63;5.20;;;26.10;56.70;;;;;;4772451;30;20043;-62
2022/05/10 12:35:46;;;;;;;18.38;5.45;;;27.70;65.20;;;;;;4788722;30;20484;-60
2022/05/10 12:38:43;;;;;;;16.42;5.20;;;25.00;64.10;;;;;;4788325;30;20055;-60
2022/05/10 12:41:40;;;;;;;37.22;6.20;;;25.60;54.30;;;;;;4788567;30;20115;-60
2022/05/10 12:44:32;;;;;;;16.92;5.40;;;25.90;55.10;;;;;;4788202;30;20059;-60
2022/05/10 12:47:10;;;;;;;27.15;5.30;;;26.40;64.10;;;;;;4788412;30;20079;-60
2022/05/10 12:50:21;;;;;;;19.42;5.90;;;25.80;63.30;;;;;;4788959;30;20114;-60
2022/05/10 12:52:48;;;;;;;18.33;5.10;;;25.30;64.00;;;;;;4787783;30;20055;-60
2022/05/10 12:55:19;;;;;;;19.40;5.18;;;25.30;64.00;;;;;;4772314;30;20064;-59
2022/05/10 12:58:21;;;;;;;11.30;5.25;;;24.80;55.20;;;;;;4772286;30;20134;-60
2022/05/10 13:00:55;;;;;;;14.77;5.20;;;25.30;55.90;;;;;;4772179;30;20063;-60
2022/05/10 13:03:28;;;;;;;19.20;5.78;;;25.30;61.40;;;;;;4788073;30;20111;-60
2022/05/10 13:06:17;;;;;;;19.58;5.38;;;25.30;66.00;;;;;;4788102;30;20063;-60
2022/05/10 13:09:07;;;;;;;22.33;5.50;;;25.00;65.60;;;;;;4788006;30;20059;-60
2022/05/10 13:11:50;;;;;;;13.13;5.05;;;24.70;65.60;;;;;;4788304;30;20055;-60
2022/05/10 13:14:18;;;;;;;15.02;5.05;;;25.20;56.30;;;;;;4788310;30;20051;-59
2022/05/10 13:16:52;;;;;;;22.92;5.90;;;25.60;66.40;;;;;;4788047;30;20062;-59
2022/05/10 13:19:20;;;;;;;21.58;5.47;;;26.00;66.40;;;;;;4787957;30;20052;-60
2022/05/10 13:21:48;;;;;;;13.57;5.63;;;24.80;66.10;;;;;;4787957;30;20078;-59
2022/05/10 13:24:18;;;;;;;15.60;5.63;;;25.40;65.80;;;;;;4787943;30;20141;-59
2022/05/10 13:27:01;;;;;;;19.50;5.90;;;25.40;66.90;;;;;;4771009;30;20681;-59
2022/05/10 13:29:40;;;;;;;15.57;5.80;;;25.00;66.90;;;;;;4787766;30;20520;-59
2022/05/10 13:32:37;;;;;;;13.07;5.65;;;24.50;66.80;;;;;;4788012;30;20463;-59
2022/05/10 13:35:10;;;;;;;13.13;5.18;;;24.40;68.00;;;;;;4787455;30;20055;-59
2022/05/10 13:37:40;;;;;;;13.65;5.35;;;24.40;69.10;;;;;;4787939;30;20529;-59
2022/05/10 13:40:41;;;;;;;19.70;5.88;;;24.50;69.10;;;;;;4771589;30;20099;-59
2022/05/10 13:43:09;;;;;;;24.40;6.00;;;24.20;68.60;;;;;;4787566;30;20546;-59